sensor_id;sensor_type;location;lat;lon;timestamp;temperature;humidity
70475;DHT22;57944;48.722;9.316;2023-02-15T00:02:00;-0.70;99.90
70475;DHT22;57944;48.722;9.316;2023-02-15T00:04:31;-0.70;99.90
70475;DHT22;57944;48.722;9.316;2023-02-15T00:07:18;-0.70;99.90
70475;DHT22;57944;48.722;9.316;2023-02-15T00:09:49;-0.80;99.90
70475;DHT22;57944;48.722;9.316;2023-02-15T00:12:19;-1.00;99.90
70475;DHT22;57944;48.722;9.316;2023-02-15T00:14:49;-1.00;99.90
70475;DHT22;57944;48.722;9.316;2023-02-15T00:17:22;-1.10;99.90
70475;DHT22;57944;48.722;9.316;2023-02-15T00:19:52;-1.20;99.90
70475;DHT22;57944;48.722;9.316;2023-02-15T00:22:22;-1.30;99.90
70475;DHT22;57944;48.722;9.316;2023-02-15T00:24:52;-1.40;99.90
70475;DHT22;57944;48.722;9.316;2023-02-15T00:27:22;-1.50;99.90
70475;DHT22;57944;48.722;9.316;2023-02-15T00:29:52;-1.60;99.90
70475;DHT22;57944;48.722;9.316;2023-02-15T00:32:25;-1.60;99.90
70475;DHT22;57944;48.722;9.316;2023-02-15T00:34:55;-1.60;99.90
70475;DHT22;57944;48.722;9.316;2023-02-15T00:37:25;-1.50;99.90
70475;DHT22;57944;48.722;9.316;2023-02-15T00:39:55;-1.30;99.90
70475;DHT22;57944;48.722;9.316;2023-02-15T00:42:25;-1.20;99.90
70475;DHT22;57944;48.722;9.316;2023-02-15T00:44:55;-1.10;99.90
70475;DHT22;57944;48.722;9.316;2023-02-15T00:47:30;-1.10;99.90
70475;DHT22;57944;48.722;9.316;2023-02-15T00:50:00;-1.20;99.90
70475;DHT22;57944;48.722;9.316;2023-02-15T00:52:30;-1.00;99.90
70475;DHT22;57944;48.722;9.316;2023-02-15T00:55:02;-0.80;99.90
70475;DHT22;57944;48.722;9.316;2023-02-15T00:57:33;-0.60;99.90
70475;DHT22;57944;48.722;9.316;2023-02-15T01:00:03;-0.50;99.90
70475;DHT22;57944;48.722;9.316;2023-02-15T01:02:37;-0.50;99.90
70475;DHT22;57944;48.722;9.316;2023-02-15T01:05:07;-0.70;99.90
70475;DHT22;57944;48.722;9.316;2023-02-15T01:07:38;-0.90;99.90
70475;DHT22;57944;48.722;9.316;2023-02-15T01:10:08;-1.10;99.90
70475;DHT22;57944;48.722;9.316;2023-02-15T01:12:39;-1.00;99.90
70475;DHT22;57944;48.722;9.316;2023-02-15T01:15:09;-0.90;99.90
70475;DHT22;57944;48.722;9.316;2023-02-15T01:17:42;-0.90;99.90
70475;DHT22;57944;48.722;9.316;2023-02-15T01:20:18;-1.00;99.90
70475;DHT22;57944;48.722;9.316;2023-02-15T01:22:49;-1.20;99.90
70475;DHT22;57944;48.722;9.316;2023-02-15T01:25:21;-1.30;99.90
70475;DHT22;57944;48.722;9.316;2023-02-15T01:27:54;-1.40;99.90
70475;DHT22;57944;48.722;9.316;2023-02-15T01:30:24;-1.60;99.90
70475;DHT22;57944;48.722;9.316;2023-02-15T01:32:57;-1.80;99.90
70475;DHT22;57944;48.722;9.316;2023-02-15T01:35:30;-1.80;99.90
70475;DHT22;57944;48.722;9.316;2023-02-15T01:38:00;-1.70;99.90
70475;DHT22;57944;48.722;9.316;2023-02-15T01:40:30;-1.50;99.90
70475;DHT22;57944;48.722;9.316;2023-02-15T01:43:00;-1.50;99.90
70475;DHT22;57944;48.722;9.316;2023-02-15T01:45:32;-1.60;99.90
70475;DHT22;57944;48.722;9.316;2023-02-15T01:48:08;-1.50;99.90
70475;DHT22;57944;48.722;9.316;2023-02-15T01:50:51;-1.50;99.90
70475;DHT22;57944;48.722;9.316;2023-02-15T01:53:25;-1.60;99.90
70475;DHT22;57944;48.722;9.316;2023-02-15T01:56:02;-1.60;99.90
70475;DHT22;57944;48.722;9.316;2023-02-15T01:58:37;-1.50;99.90
70475;DHT22;57944;48.722;9.316;2023-02-15T02:01:08;-1.50;99.90
70475;DHT22;57944;48.722;9.316;2023-02-15T02:03:46;-1.60;99.90
70475;DHT22;57944;48.722;9.316;2023-02-15T02:06:23;-1.70;99.90
70475;DHT22;57944;48.722;9.316;2023-02-15T02:08:55;-1.80;99.90
70475;DHT22;57944;48.722;9.316;2023-02-15T02:11:26;-1.80;99.90
70475;DHT22;57944;48.722;9.316;2023-02-15T02:13:56;-1.90;99.90
70475;DHT22;57944;48.722;9.316;2023-02-15T02:16:34;-1.90;99.90
70475;DHT22;57944;48.722;9.316;2023-02-15T02:22:49;-2.10;99.90
70475;DHT22;57944;48.722;9.316;2023-02-15T02:29:40;-2.10;99.90
70475;DHT22;57944;48.722;9.316;2023-02-15T02:33:11;-1.90;99.90
70475;DHT22;57944;48.722;9.316;2023-02-15T02:36:08;-2.10;99.90
70475;DHT22;57944;48.722;9.316;2023-02-15T02:38:57;-2.30;99.90
70475;DHT22;57944;48.722;9.316;2023-02-15T02:41:42;-2.30;99.90
70475;DHT22;57944;48.722;9.316;2023-02-15T02:44:22;-2.40;99.90
70475;DHT22;57944;48.722;9.316;2023-02-15T02:46:59;-2.50;99.90
70475;DHT22;57944;48.722;9.316;2023-02-15T02:49:40;-2.30;99.90
70475;DHT22;57944;48.722;9.316;2023-02-15T02:52:34;-2.20;99.90
70475;DHT22;57944;48.722;9.316;2023-02-15T02:55:11;-2.30;99.90
70475;DHT22;57944;48.722;9.316;2023-02-15T02:57:52;-2.40;99.90
70475;DHT22;57944;48.722;9.316;2023-02-15T03:00:28;-2.20;99.90
70475;DHT22;57944;48.722;9.316;2023-02-15T03:03:04;-2.20;99.90
70475;DHT22;57944;48.722;9.316;2023-02-15T03:05:43;-2.30;99.90
70475;DHT22;57944;48.722;9.316;2023-02-15T03:08:19;-2.30;99.90
70475;DHT22;57944;48.722;9.316;2023-02-15T03:10:57;-2.50;99.90
70475;DHT22;57944;48.722;9.316;2023-02-15T03:13:30;-2.80;99.90
70475;DHT22;57944;48.722;9.316;2023-02-15T03:16:02;-2.90;99.90
70475;DHT22;57944;48.722;9.316;2023-02-15T03:18:52;-2.80;99.90
70475;DHT22;57944;48.722;9.316;2023-02-15T03:21:40;-2.80;99.90
70475;DHT22;57944;48.722;9.316;2023-02-15T03:24:27;-2.80;99.90
70475;DHT22;57944;48.722;9.316;2023-02-15T03:27:03;-2.50;99.90
70475;DHT22;57944;48.722;9.316;2023-02-15T03:29:38;-2.40;99.90
70475;DHT22;57944;48.722;9.316;2023-02-15T03:32:10;-2.20;99.90
70475;DHT22;57944;48.722;9.316;2023-02-15T03:34:42;-2.10;99.90
70475;DHT22;57944;48.722;9.316;2023-02-15T03:37:22;-2.20;99.90
70475;DHT22;57944;48.722;9.316;2023-02-15T03:39:59;-2.30;99.90
70475;DHT22;57944;48.722;9.316;2023-02-15T03:42:59;-2.30;99.90
70475;DHT22;57944;48.722;9.316;2023-02-15T03:45:36;-2.30;99.90
70475;DHT22;57944;48.722;9.316;2023-02-15T03:48:25;-2.40;99.90
70475;DHT22;57944;48.722;9.316;2023-02-15T03:51:03;-2.30;99.90
70475;DHT22;57944;48.722;9.316;2023-02-15T03:53:54;-2.50;99.90
70475;DHT22;57944;48.722;9.316;2023-02-15T03:56:25;-2.40;99.90
70475;DHT22;57944;48.722;9.316;2023-02-15T03:58:56;-2.60;99.90
70475;DHT22;57944;48.722;9.316;2023-02-15T04:01:40;-2.50;99.90
70475;DHT22;57944;48.722;9.316;2023-02-15T04:04:34;-2.60;99.90
70475;DHT22;57944;48.722;9.316;2023-02-15T04:07:07;-2.60;99.90
70475;DHT22;57944;48.722;9.316;2023-02-15T04:09:41;-2.60;99.90
70475;DHT22;57944;48.722;9.316;2023-02-15T04:12:24;-2.80;99.90
70475;DHT22;57944;48.722;9.316;2023-02-15T04:14:54;-2.80;99.90
70475;DHT22;57944;48.722;9.316;2023-02-15T04:17:37;-2.80;99.90
70475;DHT22;57944;48.722;9.316;2023-02-15T04:20:08;-2.40;99.90
70475;DHT22;57944;48.722;9.316;2023-02-15T04:22:52;-2.20;99.90
70475;DHT22;57944;48.722;9.316;2023-02-15T04:25:37;-2.30;99.90
70475;DHT22;57944;48.722;9.316;2023-02-15T04:28:07;-2.40;99.90
70475;DHT22;57944;48.722;9.316;2023-02-15T04:30:37;-2.40;99.90
70475;DHT22;57944;48.722;9.316;2023-02-15T04:33:07;-2.50;99.90
70475;DHT22;57944;48.722;9.316;2023-02-15T04:35:37;-2.60;99.90
70475;DHT22;57944;48.722;9.316;2023-02-15T04:38:07;-2.80;99.90
70475;DHT22;57944;48.722;9.316;2023-02-15T04:40:40;-2.90;99.90
70475;DHT22;57944;48.722;9.316;2023-02-15T04:43:10;-2.90;99.90
70475;DHT22;57944;48.722;9.316;2023-02-15T04:45:40;-2.80;99.90
70475;DHT22;57944;48.722;9.316;2023-02-15T04:48:10;-2.90;99.90
70475;DHT22;57944;48.722;9.316;2023-02-15T04:50:40;-3.00;99.90
70475;DHT22;57944;48.722;9.316;2023-02-15T04:53:10;-3.00;99.90
70475;DHT22;57944;48.722;9.316;2023-02-15T04:55:46;-3.00;99.90
70475;DHT22;57944;48.722;9.316;2023-02-15T04:58:16;-2.70;99.90
70475;DHT22;57944;48.722;9.316;2023-02-15T05:00:46;-2.60;99.90
70475;DHT22;57944;48.722;9.316;2023-02-15T05:03:16;-2.50;99.90
70475;DHT22;57944;48.722;9.316;2023-02-15T05:05:46;-2.30;99.90
70475;DHT22;57944;48.722;9.316;2023-02-15T05:08:17;-2.20;99.90
70475;DHT22;57944;48.722;9.316;2023-02-15T05:10:50;-2.20;99.90
70475;DHT22;57944;48.722;9.316;2023-02-15T05:13:20;-2.10;99.90
70475;DHT22;57944;48.722;9.316;2023-02-15T05:15:51;-2.10;99.90
70475;DHT22;57944;48.722;9.316;2023-02-15T05:18:22;-2.00;99.90
70475;DHT22;57944;48.722;9.316;2023-02-15T05:20:53;-2.00;99.90
70475;DHT22;57944;48.722;9.316;2023-02-15T05:23:23;-2.30;99.90
70475;DHT22;57944;48.722;9.316;2023-02-15T05:25:55;-2.60;99.90
70475;DHT22;57944;48.722;9.316;2023-02-15T05:28:38;-2.80;99.90
70475;DHT22;57944;48.722;9.316;2023-02-15T05:31:11;-2.90;99.90
70475;DHT22;57944;48.722;9.316;2023-02-15T05:33:44;-3.10;99.90
70475;DHT22;57944;48.722;9.316;2023-02-15T05:36:14;-3.20;99.90
70475;DHT22;57944;48.722;9.316;2023-02-15T05:38:44;-3.20;99.90
70475;DHT22;57944;48.722;9.316;2023-02-15T05:41:17;-3.40;99.90
70475;DHT22;57944;48.722;9.316;2023-02-15T05:43:48;-3.30;99.90
70475;DHT22;57944;48.722;9.316;2023-02-15T05:46:18;-3.20;99.90
70475;DHT22;57944;48.722;9.316;2023-02-15T05:48:48;-3.20;99.90
70475;DHT22;57944;48.722;9.316;2023-02-15T05:51:18;-3.20;99.90
70475;DHT22;57944;48.722;9.316;2023-02-15T05:53:48;-2.90;99.90
70475;DHT22;57944;48.722;9.316;2023-02-15T05:56:21;-2.50;99.90
70475;DHT22;57944;48.722;9.316;2023-02-15T05:58:53;-2.10;99.90
70475;DHT22;57944;48.722;9.316;2023-02-15T06:01:23;-1.80;99.90
70475;DHT22;57944;48.722;9.316;2023-02-15T06:03:53;-1.90;99.90
70475;DHT22;57944;48.722;9.316;2023-02-15T06:06:23;-2.20;99.90
70475;DHT22;57944;48.722;9.316;2023-02-15T06:08:53;-2.40;99.90
70475;DHT22;57944;48.722;9.316;2023-02-15T06:11:26;-2.60;99.90
70475;DHT22;57944;48.722;9.316;2023-02-15T06:13:56;-2.70;99.90
70475;DHT22;57944;48.722;9.316;2023-02-15T06:16:26;-2.90;99.90
70475;DHT22;57944;48.722;9.316;2023-02-15T06:18:56;-3.20;99.90
70475;DHT22;57944;48.722;9.316;2023-02-15T06:21:28;-3.30;99.90
70475;DHT22;57944;48.722;9.316;2023-02-15T06:23:59;-3.50;99.90
70475;DHT22;57944;48.722;9.316;2023-02-15T06:26:32;-3.50;99.90
70475;DHT22;57944;48.722;9.316;2023-02-15T06:29:02;-3.50;99.90
70475;DHT22;57944;48.722;9.316;2023-02-15T06:31:32;-3.50;99.90
70475;DHT22;57944;48.722;9.316;2023-02-15T06:34:03;-3.50;99.90
70475;DHT22;57944;48.722;9.316;2023-02-15T06:36:33;-3.40;99.90
70475;DHT22;57944;48.722;9.316;2023-02-15T06:39:03;-2.90;99.90
70475;DHT22;57944;48.722;9.316;2023-02-15T06:41:36;-2.40;99.90
70475;DHT22;57944;48.722;9.316;2023-02-15T06:44:06;-2.30;99.90
70475;DHT22;57944;48.722;9.316;2023-02-15T06:46:36;-2.20;99.90
70475;DHT22;57944;48.722;9.316;2023-02-15T06:49:06;-2.10;99.90
70475;DHT22;57944;48.722;9.316;2023-02-15T06:51:37;-1.80;99.90
70475;DHT22;57944;48.722;9.316;2023-02-15T06:54:07;-1.60;99.90
70475;DHT22;57944;48.722;9.316;2023-02-15T06:56:39;-1.70;99.90
70475;DHT22;57944;48.722;9.316;2023-02-15T06:59:10;-2.00;99.90
70475;DHT22;57944;48.722;9.316;2023-02-15T07:01:40;-2.20;99.90
70475;DHT22;57944;48.722;9.316;2023-02-15T07:04:10;-2.40;99.90
70475;DHT22;57944;48.722;9.316;2023-02-15T07:06:40;-2.60;99.90
70475;DHT22;57944;48.722;9.316;2023-02-15T07:09:11;-2.70;99.90
70475;DHT22;57944;48.722;9.316;2023-02-15T07:11:43;-2.50;99.90
70475;DHT22;57944;48.722;9.316;2023-02-15T07:14:26;-2.40;99.90
70475;DHT22;57944;48.722;9.316;2023-02-15T07:16:56;-2.40;99.90
70475;DHT22;57944;48.722;9.316;2023-02-15T07:19:26;-2.60;99.90
70475;DHT22;57944;48.722;9.316;2023-02-15T07:21:56;-2.80;99.90
70475;DHT22;57944;48.722;9.316;2023-02-15T07:24:26;-2.70;99.90
70475;DHT22;57944;48.722;9.316;2023-02-15T07:26:59;-2.80;99.90
70475;DHT22;57944;48.722;9.316;2023-02-15T07:29:29;-2.70;99.90
70475;DHT22;57944;48.722;9.316;2023-02-15T07:31:59;-2.60;99.90
70475;DHT22;57944;48.722;9.316;2023-02-15T07:34:29;-2.60;99.90
70475;DHT22;57944;48.722;9.316;2023-02-15T07:36:59;-2.50;99.90
70475;DHT22;57944;48.722;9.316;2023-02-15T07:39:29;-2.40;99.90
70475;DHT22;57944;48.722;9.316;2023-02-15T07:42:02;-2.30;99.90
70475;DHT22;57944;48.722;9.316;2023-02-15T07:44:32;-2.20;99.90
70475;DHT22;57944;48.722;9.316;2023-02-15T07:47:02;-2.00;99.90
70475;DHT22;57944;48.722;9.316;2023-02-15T07:49:32;-1.90;99.90
70475;DHT22;57944;48.722;9.316;2023-02-15T07:52:03;-1.70;99.90
70475;DHT22;57944;48.722;9.316;2023-02-15T07:54:33;-1.40;99.90
70475;DHT22;57944;48.722;9.316;2023-02-15T07:57:06;-1.10;99.90
70475;DHT22;57944;48.722;9.316;2023-02-15T07:59:36;-1.00;99.90
70475;DHT22;57944;48.722;9.316;2023-02-15T08:02:08;-1.00;99.90
70475;DHT22;57944;48.722;9.316;2023-02-15T08:04:40;-1.00;99.90
70475;DHT22;57944;48.722;9.316;2023-02-15T08:07:10;-1.10;99.90
70475;DHT22;57944;48.722;9.316;2023-02-15T08:09:40;-0.90;99.90
70475;DHT22;57944;48.722;9.316;2023-02-15T08:12:12;-0.70;99.90
70475;DHT22;57944;48.722;9.316;2023-02-15T08:14:42;-0.90;99.90
70475;DHT22;57944;48.722;9.316;2023-02-15T08:17:12;-0.90;99.90
70475;DHT22;57944;48.722;9.316;2023-02-15T08:19:42;-0.90;99.90
70475;DHT22;57944;48.722;9.316;2023-02-15T08:22:14;-0.90;99.90
70475;DHT22;57944;48.722;9.316;2023-02-15T08:24:44;-0.80;99.90
70475;DHT22;57944;48.722;9.316;2023-02-15T08:27:16;-0.80;99.90
70475;DHT22;57944;48.722;9.316;2023-02-15T08:29:53;-0.80;99.90
70475;DHT22;57944;48.722;9.316;2023-02-15T08:32:23;-0.80;99.90
70475;DHT22;57944;48.722;9.316;2023-02-15T08:34:53;-0.70;99.90
70475;DHT22;57944;48.722;9.316;2023-02-15T08:37:23;-0.60;99.90
70475;DHT22;57944;48.722;9.316;2023-02-15T08:39:53;-0.50;99.90
70475;DHT22;57944;48.722;9.316;2023-02-15T08:42:26;-0.20;99.90
70475;DHT22;57944;48.722;9.316;2023-02-15T08:44:57;0.00;99.90
70475;DHT22;57944;48.722;9.316;2023-02-15T08:47:27;0.00;99.90
70475;DHT22;57944;48.722;9.316;2023-02-15T08:49:57;0.30;99.90
70475;DHT22;57944;48.722;9.316;2023-02-15T08:52:27;0.50;99.90
70475;DHT22;57944;48.722;9.316;2023-02-15T08:54:57;0.50;99.90
70475;DHT22;57944;48.722;9.316;2023-02-15T08:57:30;0.50;99.90
70475;DHT22;57944;48.722;9.316;2023-02-15T09:00:00;0.60;99.90
70475;DHT22;57944;48.722;9.316;2023-02-15T09:02:31;0.60;99.90
70475;DHT22;57944;48.722;9.316;2023-02-15T09:05:02;0.70;99.90
70475;DHT22;57944;48.722;9.316;2023-02-15T09:07:32;0.80;99.90
70475;DHT22;57944;48.722;9.316;2023-02-15T09:10:02;0.90;99.90
70475;DHT22;57944;48.722;9.316;2023-02-15T09:12:35;1.00;99.90
70475;DHT22;57944;48.722;9.316;2023-02-15T09:15:06;1.10;99.90
70475;DHT22;57944;48.722;9.316;2023-02-15T09:17:37;1.10;99.90
70475;DHT22;57944;48.722;9.316;2023-02-15T09:20:08;1.10;99.90
70475;DHT22;57944;48.722;9.316;2023-02-15T09:22:38;1.10;99.90
70475;DHT22;57944;48.722;9.316;2023-02-15T09:25:09;1.00;99.90
70475;DHT22;57944;48.722;9.316;2023-02-15T09:27:43;1.10;99.90
70475;DHT22;57944;48.722;9.316;2023-02-15T09:30:13;1.40;99.90
70475;DHT22;57944;48.722;9.316;2023-02-15T09:32:44;1.50;99.90
70475;DHT22;57944;48.722;9.316;2023-02-15T09:35:14;1.40;99.90
70475;DHT22;57944;48.722;9.316;2023-02-15T09:37:44;1.40;99.90
70475;DHT22;57944;48.722;9.316;2023-02-15T09:40:16;1.40;99.90
70475;DHT22;57944;48.722;9.316;2023-02-15T09:43:15;1.30;99.90
70475;DHT22;57944;48.722;9.316;2023-02-15T09:46:16;1.50;99.90
70475;DHT22;57944;48.722;9.316;2023-02-15T09:49:04;1.60;99.90
70475;DHT22;57944;48.722;9.316;2023-02-15T09:52:14;1.80;99.90
70475;DHT22;57944;48.722;9.316;2023-02-15T09:55:06;2.00;99.90
70475;DHT22;57944;48.722;9.316;2023-02-15T09:57:54;2.00;99.90
70475;DHT22;57944;48.722;9.316;2023-02-15T10:00:41;1.80;99.90
70475;DHT22;57944;48.722;9.316;2023-02-15T10:03:31;2.00;99.90
70475;DHT22;57944;48.722;9.316;2023-02-15T10:06:22;2.10;99.90
70475;DHT22;57944;48.722;9.316;2023-02-15T10:09:14;2.20;99.90
70475;DHT22;57944;48.722;9.316;2023-02-15T10:12:07;2.10;99.90
70475;DHT22;57944;48.722;9.316;2023-02-15T10:15:00;2.20;99.90
70475;DHT22;57944;48.722;9.316;2023-02-15T10:17:51;2.60;99.90
70475;DHT22;57944;48.722;9.316;2023-02-15T10:20:38;2.80;99.90
70475;DHT22;57944;48.722;9.316;2023-02-15T10:23:34;3.00;99.90
70475;DHT22;57944;48.722;9.316;2023-02-15T10:26:18;3.20;99.90
70475;DHT22;57944;48.722;9.316;2023-02-15T10:28:51;3.40;99.90
70475;DHT22;57944;48.722;9.316;2023-02-15T10:31:25;3.50;99.90
70475;DHT22;57944;48.722;9.316;2023-02-15T10:34:14;3.70;99.90
70475;DHT22;57944;48.722;9.316;2023-02-15T10:40:09;4.00;99.90
70475;DHT22;57944;48.722;9.316;2023-02-15T10:43:05;4.10;99.90
70475;DHT22;57944;48.722;9.316;2023-02-15T10:45:53;4.10;99.90
70475;DHT22;57944;48.722;9.316;2023-02-15T10:49:01;4.20;99.90
70475;DHT22;57944;48.722;9.316;2023-02-15T10:51:53;4.30;99.90
70475;DHT22;57944;48.722;9.316;2023-02-15T10:54:45;4.50;99.90
70475;DHT22;57944;48.722;9.316;2023-02-15T10:57:24;4.70;99.90
70475;DHT22;57944;48.722;9.316;2023-02-15T11:00:08;4.70;99.90
70475;DHT22;57944;48.722;9.316;2023-02-15T11:03:03;4.80;99.90
70475;DHT22;57944;48.722;9.316;2023-02-15T11:05:57;4.80;99.90
70475;DHT22;57944;48.722;9.316;2023-02-15T11:08:35;4.90;99.90
70475;DHT22;57944;48.722;9.316;2023-02-15T11:11:11;5.10;99.90
70475;DHT22;57944;48.722;9.316;2023-02-15T11:13:48;5.20;99.90
70475;DHT22;57944;48.722;9.316;2023-02-15T11:16:24;5.40;99.90
70475;DHT22;57944;48.722;9.316;2023-02-15T11:19:00;5.40;99.90
70475;DHT22;57944;48.722;9.316;2023-02-15T11:21:42;5.20;99.90
70475;DHT22;57944;48.722;9.316;2023-02-15T11:24:18;5.10;99.90
70475;DHT22;57944;48.722;9.316;2023-02-15T11:26:54;5.10;99.90
70475;DHT22;57944;48.722;9.316;2023-02-15T11:29:32;5.10;99.90
70475;DHT22;57944;48.722;9.316;2023-02-15T11:32:18;5.20;99.90
70475;DHT22;57944;48.722;9.316;2023-02-15T11:34:54;5.40;99.90
70475;DHT22;57944;48.722;9.316;2023-02-15T11:37:33;5.70;99.90
70475;DHT22;57944;48.722;9.316;2023-02-15T11:40:17;5.90;99.90
70475;DHT22;57944;48.722;9.316;2023-02-15T11:42:55;6.10;99.90
70475;DHT22;57944;48.722;9.316;2023-02-15T11:45:28;6.10;99.90
70475;DHT22;57944;48.722;9.316;2023-02-15T11:48:00;6.30;99.90
70475;DHT22;57944;48.722;9.316;2023-02-15T11:50:32;6.30;99.90
70475;DHT22;57944;48.722;9.316;2023-02-15T11:53:10;6.50;99.90
70475;DHT22;57944;48.722;9.316;2023-02-15T11:55:45;6.80;99.90
70475;DHT22;57944;48.722;9.316;2023-02-15T11:58:25;7.00;99.90
70475;DHT22;57944;48.722;9.316;2023-02-15T12:01:04;7.00;99.90
70475;DHT22;57944;48.722;9.316;2023-02-15T12:03:45;7.10;99.90
70475;DHT22;57944;48.722;9.316;2023-02-15T12:06:23;7.30;99.90
70475;DHT22;57944;48.722;9.316;2023-02-15T12:09:02;7.50;99.90
70475;DHT22;57944;48.722;9.316;2023-02-15T12:11:42;7.60;99.90
70475;DHT22;57944;48.722;9.316;2023-02-15T12:14:13;7.70;99.90
70475;DHT22;57944;48.722;9.316;2023-02-15T12:16:46;7.80;99.90
70475;DHT22;57944;48.722;9.316;2023-02-15T12:19:27;7.90;99.90
70475;DHT22;57944;48.722;9.316;2023-02-15T12:22:01;8.00;99.90
70475;DHT22;57944;48.722;9.316;2023-02-15T12:24:45;7.90;99.90
70475;DHT22;57944;48.722;9.316;2023-02-15T12:27:19;7.40;99.90
70475;DHT22;57944;48.722;9.316;2023-02-15T12:29:56;7.20;99.90
70475;DHT22;57944;48.722;9.316;2023-02-15T12:32:33;7.10;99.90
70475;DHT22;57944;48.722;9.316;2023-02-15T12:35:09;7.10;99.90
70475;DHT22;57944;48.722;9.316;2023-02-15T12:37:53;7.00;99.90
70475;DHT22;57944;48.722;9.316;2023-02-15T12:40:27;7.00;99.90
70475;DHT22;57944;48.722;9.316;2023-02-15T12:42:58;7.10;99.90
70475;DHT22;57944;48.722;9.316;2023-02-15T12:45:36;7.20;99.90
70475;DHT22;57944;48.722;9.316;2023-02-15T12:48:15;7.30;99.90
70475;DHT22;57944;48.722;9.316;2023-02-15T12:50:47;7.40;99.90
70475;DHT22;57944;48.722;9.316;2023-02-15T12:53:29;7.50;99.90
70475;DHT22;57944;48.722;9.316;2023-02-15T12:56:05;7.50;99.90
70475;DHT22;57944;48.722;9.316;2023-02-15T12:58:38;7.60;99.90
70475;DHT22;57944;48.722;9.316;2023-02-15T13:01:12;7.50;99.90
70475;DHT22;57944;48.722;9.316;2023-02-15T13:03:58;7.50;99.90
70475;DHT22;57944;48.722;9.316;2023-02-15T13:06:34;7.50;99.90
70475;DHT22;57944;48.722;9.316;2023-02-15T13:09:13;7.80;99.90
70475;DHT22;57944;48.722;9.316;2023-02-15T13:11:49;7.90;99.90
70475;DHT22;57944;48.722;9.316;2023-02-15T13:14:20;7.90;99.90
70475;DHT22;57944;48.722;9.316;2023-02-15T13:17:00;8.10;99.90
70475;DHT22;57944;48.722;9.316;2023-02-15T13:19:37;8.00;99.90
70475;DHT22;57944;48.722;9.316;2023-02-15T13:22:14;8.10;99.90
70475;DHT22;57944;48.722;9.316;2023-02-15T13:24:48;8.30;99.90
70475;DHT22;57944;48.722;9.316;2023-02-15T13:27:28;8.30;99.90
70475;DHT22;57944;48.722;9.316;2023-02-15T13:30:14;8.40;99.90
70475;DHT22;57944;48.722;9.316;2023-02-15T13:32:55;8.50;99.90
70475;DHT22;57944;48.722;9.316;2023-02-15T13:35:37;8.40;99.90
70475;DHT22;57944;48.722;9.316;2023-02-15T13:38:32;8.40;99.90
70475;DHT22;57944;48.722;9.316;2023-02-15T13:41:16;8.40;99.90
70475;DHT22;57944;48.722;9.316;2023-02-15T13:44:03;8.30;99.90
70475;DHT22;57944;48.722;9.316;2023-02-15T13:46:59;8.30;99.90
70475;DHT22;57944;48.722;9.316;2023-02-15T13:49:43;8.40;99.90
70475;DHT22;57944;48.722;9.316;2023-02-15T13:52:23;8.40;99.90
70475;DHT22;57944;48.722;9.316;2023-02-15T13:55:11;8.60;99.90
70475;DHT22;57944;48.722;9.316;2023-02-15T13:58:14;8.60;99.90
70475;DHT22;57944;48.722;9.316;2023-02-15T14:01:08;8.60;99.90
70475;DHT22;57944;48.722;9.316;2023-02-15T14:03:58;8.60;99.90
70475;DHT22;57944;48.722;9.316;2023-02-15T14:07:07;8.50;99.90
70475;DHT22;57944;48.722;9.316;2023-02-15T14:09:53;8.50;99.90
70475;DHT22;57944;48.722;9.316;2023-02-15T14:12:46;8.40;99.90
70475;DHT22;57944;48.722;9.316;2023-02-15T14:15:35;8.40;99.90
70475;DHT22;57944;48.722;9.316;2023-02-15T14:18:21;8.40;99.90
70475;DHT22;57944;48.722;9.316;2023-02-15T14:21:04;8.40;99.90
70475;DHT22;57944;48.722;9.316;2023-02-15T14:23:52;8.60;99.90
70475;DHT22;57944;48.722;9.316;2023-02-15T14:26:35;8.70;99.90
70475;DHT22;57944;48.722;9.316;2023-02-15T14:29:19;8.60;99.90
70475;DHT22;57944;48.722;9.316;2023-02-15T14:32:00;8.60;99.90
70475;DHT22;57944;48.722;9.316;2023-02-15T14:34:44;8.50;99.90
70475;DHT22;57944;48.722;9.316;2023-02-15T14:37:25;8.50;99.90
70475;DHT22;57944;48.722;9.316;2023-02-15T14:40:10;8.50;99.90
70475;DHT22;57944;48.722;9.316;2023-02-15T14:43:05;8.50;99.90
70475;DHT22;57944;48.722;9.316;2023-02-15T14:45:46;8.60;99.90
70475;DHT22;57944;48.722;9.316;2023-02-15T14:48:24;8.70;99.90
70475;DHT22;57944;48.722;9.316;2023-02-15T14:51:01;8.90;99.90
70475;DHT22;57944;48.722;9.316;2023-02-15T14:53:37;9.00;99.90
70475;DHT22;57944;48.722;9.316;2023-02-15T14:56:18;9.00;99.90
70475;DHT22;57944;48.722;9.316;2023-02-15T14:59:12;8.90;99.90
70475;DHT22;57944;48.722;9.316;2023-02-15T15:01:55;9.00;99.90
70475;DHT22;57944;48.722;9.316;2023-02-15T15:04:33;9.10;99.90
70475;DHT22;57944;48.722;9.316;2023-02-15T15:07:20;9.30;99.90
70475;DHT22;57944;48.722;9.316;2023-02-15T15:10:00;9.20;99.90
70475;DHT22;57944;48.722;9.316;2023-02-15T15:12:44;9.20;99.90
70475;DHT22;57944;48.722;9.316;2023-02-15T15:15:33;9.00;99.90
70475;DHT22;57944;48.722;9.316;2023-02-15T15:18:43;8.90;99.90
70475;DHT22;57944;48.722;9.316;2023-02-15T15:24:51;8.80;99.90
70475;DHT22;57944;48.722;9.316;2023-02-15T15:27:40;8.70;99.90
70475;DHT22;57944;48.722;9.316;2023-02-15T15:43:50;8.40;99.90
70475;DHT22;57944;48.722;9.316;2023-02-15T15:49:55;8.30;99.90
70475;DHT22;57944;48.722;9.316;2023-02-15T15:52:28;8.20;99.90
70475;DHT22;57944;48.722;9.316;2023-02-15T15:55:17;8.20;99.90
70475;DHT22;57944;48.722;9.316;2023-02-15T15:57:51;8.10;99.90
70475;DHT22;57944;48.722;9.316;2023-02-15T16:00:33;8.10;99.90
70475;DHT22;57944;48.722;9.316;2023-02-15T16:03:14;8.00;99.90
70475;DHT22;57944;48.722;9.316;2023-02-15T16:05:45;8.00;99.90
70475;DHT22;57944;48.722;9.316;2023-02-15T16:08:26;7.90;99.90
70475;DHT22;57944;48.722;9.316;2023-02-15T16:11:09;7.70;99.90
70475;DHT22;57944;48.722;9.316;2023-02-15T16:13:44;7.60;99.90
70475;DHT22;57944;48.722;9.316;2023-02-15T16:16:20;7.50;99.90
70475;DHT22;57944;48.722;9.316;2023-02-15T16:18:52;7.40;99.90
70475;DHT22;57944;48.722;9.316;2023-02-15T16:21:28;7.30;99.90
70475;DHT22;57944;48.722;9.316;2023-02-15T16:24:26;7.10;99.90
70475;DHT22;57944;48.722;9.316;2023-02-15T16:27:32;7.10;99.90
70475;DHT22;57944;48.722;9.316;2023-02-15T16:30:22;7.00;99.90
70475;DHT22;57944;48.722;9.316;2023-02-15T16:33:02;6.90;99.90
70475;DHT22;57944;48.722;9.316;2023-02-15T16:35:35;6.90;99.90
70475;DHT22;57944;48.722;9.316;2023-02-15T16:38:09;6.70;99.90
70475;DHT22;57944;48.722;9.316;2023-02-15T16:40:51;6.60;99.90
70475;DHT22;57944;48.722;9.316;2023-02-15T16:43:29;6.50;99.90
70475;DHT22;57944;48.722;9.316;2023-02-15T16:46:04;6.50;99.90
70475;DHT22;57944;48.722;9.316;2023-02-15T16:48:40;6.50;99.90
70475;DHT22;57944;48.722;9.316;2023-02-15T16:51:19;6.40;99.90
70475;DHT22;57944;48.722;9.316;2023-02-15T16:53:56;6.50;99.90
70475;DHT22;57944;48.722;9.316;2023-02-15T16:56:31;6.50;99.90
70475;DHT22;57944;48.722;9.316;2023-02-15T16:59:05;6.40;99.90
70475;DHT22;57944;48.722;9.316;2023-02-15T17:01:35;6.40;99.90
70475;DHT22;57944;48.722;9.316;2023-02-15T17:04:13;6.20;99.90
70475;DHT22;57944;48.722;9.316;2023-02-15T17:07:00;6.10;99.90
70475;DHT22;57944;48.722;9.316;2023-02-15T17:09:33;6.00;99.90
70475;DHT22;57944;48.722;9.316;2023-02-15T17:12:03;5.80;99.90